Time;durP1;ratioP1;P1;durP2;ratioP2;P2;SDS_P1;SDS_P2;PMS_P1;PMS_P2;Temp;Humidity;BMP_temperature;BMP_pressure;BME280_temperature;BME280_humidity;BME280_pressure;Samples;Min_cycle;Max_cycle;Signal;HPM_P1;HPM_P2
2023/01/02 00:01:43;;;;;;;17.13;11.23;;;;;;;;;;5050140;28;20201;-79
2023/01/02 00:04:09;;;;;;;15.47;11.30;;;;;;;;;;5059714;28;20645;-80
2023/01/02 00:06:36;;;;;;;17.40;11.10;;;;;;;;;;5049342;28;20198;-80
2023/01/02 00:09:05;;;;;;;15.23;11.53;;;;;;;;;;5061704;28;20169;-80
2023/01/02 00:11:32;;;;;;;19.90;12.30;;;;;;;;;;5052902;28;20200;-79
2023/01/02 00:13:58;;;;;;;19.83;11.30;;;;;;;;;;5055014;28;20213;-80
2023/01/02 00:16:24;;;;;;;15.67;10.77;;;;;;;;;;5050380;28;20990;-80
2023/01/02 00:18:50;;;;;;;16.40;10.77;;;;;;;;;;5046209;28;20555;-81
2023/01/02 00:21:16;;;;;;;19.47;11.77;;;;;;;;;;5049096;28;20189;-80
2023/01/02 00:23:43;;;;;;;19.93;12.23;;;;;;;;;;5073693;28;20281;-79
2023/01/02 00:26:09;;;;;;;15.87;10.73;;;;;;;;;;5047368;28;20182;-79
2023/01/02 00:28:36;;;;;;;17.20;11.40;;;;;;;;;;5044348;28;20192;-79
2023/01/02 00:31:09;;;;;;;16.30;11.37;;;;;;;;;;5046142;28;20627;-79
2023/01/02 00:33:35;;;;;;;15.93;10.57;;;;;;;;;;5041672;28;20291;-79
2023/01/02 00:36:09;;;;;;;16.90;11.27;;;;;;;;;;5045972;28;20212;-79
2023/01/02 00:38:35;;;;;;;17.93;11.27;;;;;;;;;;5046556;28;20192;-80
2023/01/02 00:41:01;;;;;;;18.33;11.50;;;;;;;;;;5050440;28;20187;-80
2023/01/02 00:43:27;;;;;;;19.00;11.67;;;;;;;;;;5048218;28;20671;-78
2023/01/02 00:45:54;;;;;;;18.53;11.93;;;;;;;;;;5047550;28;20212;-79
2023/01/02 00:48:21;;;;;;;16.13;11.53;;;;;;;;;;5045200;28;20231;-80
2023/01/02 00:50:47;;;;;;;15.90;11.70;;;;;;;;;;5048122;28;20178;-80
2023/01/02 00:53:13;;;;;;;18.03;11.70;;;;;;;;;;5047455;28;20197;-79
2023/01/02 00:55:39;;;;;;;16.93;11.90;;;;;;;;;;5054571;28;20189;-78
2023/01/02 00:58:05;;;;;;;17.63;11.77;;;;;;;;;;5047484;28;20280;-79
2023/01/02 01:00:31;;;;;;;17.00;11.23;;;;;;;;;;5051527;28;20181;-79
2023/01/02 01:02:58;;;;;;;19.73;11.77;;;;;;;;;;5045065;28;20178;-79
2023/01/02 01:05:25;;;;;;;18.47;11.20;;;;;;;;;;5051722;28;20179;-79
2023/01/02 01:07:51;;;;;;;19.67;12.33;;;;;;;;;;5050016;28;20212;-79
2023/01/02 01:10:17;;;;;;;17.50;11.67;;;;;;;;;;5044231;28;20525;-80
2023/01/02 01:12:43;;;;;;;17.03;11.10;;;;;;;;;;5044902;28;20725;-79
2023/01/02 01:15:09;;;;;;;18.30;11.67;;;;;;;;;;5046942;28;20255;-79
2023/01/02 01:17:35;;;;;;;19.93;11.60;;;;;;;;;;5059805;28;20223;-80
2023/01/02 01:20:01;;;;;;;19.33;10.83;;;;;;;;;;5044766;28;20181;-79
2023/01/02 01:22:27;;;;;;;16.30;11.17;;;;;;;;;;5043405;28;20186;-79
2023/01/02 01:24:53;;;;;;;17.07;10.93;;;;;;;;;;5044606;28;20193;-80
2023/01/02 01:27:19;;;;;;;21.00;12.20;;;;;;;;;;5044905;28;20186;-81
2023/01/02 01:29:45;;;;;;;16.73;10.77;;;;;;;;;;5046677;28;20178;-79
2023/01/02 01:32:11;;;;;;;18.37;11.47;;;;;;;;;;5046594;28;20200;-77
2023/01/02 01:34:37;;;;;;;17.33;11.30;;;;;;;;;;5042890;28;20736;-79
2023/01/02 01:37:03;;;;;;;21.73;11.53;;;;;;;;;;5046955;28;20280;-79
2023/01/02 01:39:29;;;;;;;18.47;11.13;;;;;;;;;;5044210;28;20564;-79
2023/01/02 01:41:55;;;;;;;17.50;11.83;;;;;;;;;;5048435;28;20181;-79
2023/01/02 01:44:40;;;;;;;17.57;10.97;;;;;;;;;;5051123;28;20235;-79
2023/01/02 01:47:11;;;;;;;15.97;10.83;;;;;;;;;;5050981;28;20174;-80
2023/01/02 01:49:37;;;;;;;26.90;11.43;;;;;;;;;;5046308;28;20274;-78
2023/01/02 01:52:05;;;;;;;16.20;10.73;;;;;;;;;;5054355;28;20269;-79
2023/01/02 01:54:36;;;;;;;19.40;11.03;;;;;;;;;;5051269;28;20222;-80
2023/01/02 01:57:04;;;;;;;16.17;10.77;;;;;;;;;;5045107;28;20189;-80
2023/01/02 01:59:30;;;;;;;16.37;11.10;;;;;;;;;;5050807;28;20314;-79
2023/01/02 02:01:57;;;;;;;15.07;10.57;;;;;;;;;;5054938;28;20646;-80
2023/01/02 02:04:25;;;;;;;18.23;11.80;;;;;;;;;;5048973;28;20246;-79
2023/01/02 02:06:52;;;;;;;18.93;10.97;;;;;;;;;;5044484;28;20190;-80
2023/01/02 02:09:38;;;;;;;19.10;10.50;;;;;;;;;;5050467;28;20220;-81
2023/01/02 02:12:05;;;;;;;17.27;10.87;;;;;;;;;;5054367;28;20673;-80
2023/01/02 02:14:31;;;;;;;15.50;10.53;;;;;;;;;;5053412;28;20581;-79
2023/01/02 02:17:06;;;;;;;21.77;11.40;;;;;;;;;;5050456;28;20600;-80
2023/01/02 02:19:51;;;;;;;15.37;10.50;;;;;;;;;;5047425;28;20191;-79
2023/01/02 02:22:23;;;;;;;19.63;10.93;;;;;;;;;;5046372;28;20185;-79
2023/01/02 02:25:09;;;;;;;16.20;10.37;;;;;;;;;;5045359;28;20679;-79
2023/01/02 02:27:51;;;;;;;17.37;11.23;;;;;;;;;;5048112;28;20263;-79
2023/01/02 02:30:19;;;;;;;16.43;10.30;;;;;;;;;;5030440;28;20693;-80
2023/01/02 02:32:54;;;;;;;17.57;10.80;;;;;;;;;;5053099;28;20236;-79
2023/01/02 02:35:23;;;;;;;14.17;10.17;;;;;;;;;;5063961;28;21040;-81
2023/01/02 02:38:04;;;;;;;15.67;10.60;;;;;;;;;;5044152;28;20320;-78
2023/01/02 02:40:45;;;;;;;15.23;10.77;;;;;;;;;;5046982;28;20224;-79
2023/01/02 02:43:34;;;;;;;18.50;10.57;;;;;;;;;;5031588;28;20217;-80
2023/01/02 02:46:20;;;;;;;16.23;10.30;;;;;;;;;;5034486;28;20233;-81
2023/01/02 02:48:50;;;;;;;15.20;10.43;;;;;;;;;;5053025;28;20375;-78
2023/01/02 02:51:35;;;;;;;14.63;10.80;;;;;;;;;;5035180;28;20666;-81
2023/01/02 02:54:23;;;;;;;17.57;10.50;;;;;;;;;;5032140;28;20216;-79
2023/01/02 02:56:50;;;;;;;18.30;10.90;;;;;;;;;;5045890;28;20222;-78
2023/01/02 02:59:17;;;;;;;15.77;10.87;;;;;;;;;;5033423;28;20276;-79
2023/01/02 03:01:43;;;;;;;15.57;10.43;;;;;;;;;;5036870;28;20280;-78
2023/01/02 03:04:17;;;;;;;18.47;11.03;;;;;;;;;;5041715;28;20193;-79
2023/01/02 03:06:55;;;;;;;17.67;11.47;;;;;;;;;;5047912;28;20192;-80
2023/01/02 03:09:40;;;;;;;15.90;10.70;;;;;;;;;;5048277;28;20188;-81
2023/01/02 03:12:17;;;;;;;16.77;10.13;;;;;;;;;;5047918;28;20256;-81
2023/01/02 03:14:49;;;;;;;16.27;10.90;;;;;;;;;;5051587;28;20188;-80
2023/01/02 03:17:21;;;;;;;16.77;11.53;;;;;;;;;;5086007;28;20236;-78
2023/01/02 03:19:50;;;;;;;17.10;11.13;;;;;;;;;;5064233;28;20177;-78
2023/01/02 03:22:21;;;;;;;15.30;10.93;;;;;;;;;;5066335;28;20196;-78
2023/01/02 03:24:49;;;;;;;15.73;11.13;;;;;;;;;;5044898;28;20182;-81
2023/01/02 03:27:17;;;;;;;15.70;10.90;;;;;;;;;;5063431;28;20186;-79
2023/01/02 03:30:16;;;;;;;14.27;10.53;;;;;;;;;;5046070;28;20316;-78
2023/01/02 03:33:02;;;;;;;17.83;11.17;;;;;;;;;;5039359;28;20221;-79
2023/01/02 03:35:32;;;;;;;16.37;10.13;;;;;;;;;;5028342;28;20401;-80
2023/01/02 03:37:59;;;;;;;13.63;10.33;;;;;;;;;;5008728;28;20691;-79
2023/01/02 03:40:30;;;;;;;14.83;10.27;;;;;;;;;;5007447;28;20588;-78
2023/01/02 03:43:05;;;;;;;16.10;10.87;;;;;;;;;;5005086;28;20189;-78
2023/01/02 03:45:33;;;;;;;17.83;10.63;;;;;;;;;;5013163;28;20213;-80
2023/01/02 03:47:59;;;;;;;14.93;10.37;;;;;;;;;;5003974;28;20173;-79
2023/01/02 03:50:29;;;;;;;17.23;10.63;;;;;;;;;;5017474;28;20253;-79
2023/01/02 03:52:55;;;;;;;17.30;10.70;;;;;;;;;;5004234;28;20209;-78
2023/01/02 03:55:23;;;;;;;17.53;11.63;;;;;;;;;;5023051;28;20686;-79
2023/01/02 03:58:08;;;;;;;19.27;11.90;;;;;;;;;;5033170;28;20185;-77
2023/01/02 04:00:36;;;;;;;16.90;11.37;;;;;;;;;;5033077;28;20273;-78
2023/01/02 04:03:05;;;;;;;17.43;10.57;;;;;;;;;;5006118;28;20199;-81
2023/01/02 04:05:43;;;;;;;15.83;10.60;;;;;;;;;;5008964;28;20272;-79
2023/01/02 04:08:09;;;;;;;17.10;10.60;;;;;;;;;;5035883;28;20197;-80
2023/01/02 04:10:36;;;;;;;16.80;11.00;;;;;;;;;;5042750;28;20342;-79
2023/01/02 04:13:06;;;;;;;15.10;10.83;;;;;;;;;;5037843;28;21622;-81
2023/01/02 04:15:33;;;;;;;16.33;10.40;;;;;;;;;;5042677;28;20626;-79
2023/01/02 04:18:02;;;;;;;17.47;11.00;;;;;;;;;;5043729;28;20181;-78
2023/01/02 04:20:30;;;;;;;19.53;10.67;;;;;;;;;;5041069;28;20189;-78
2023/01/02 04:23:08;;;;;;;15.10;10.70;;;;;;;;;;5044466;28;20174;-81
2023/01/02 04:25:40;;;;;;;16.90;10.57;;;;;;;;;;5039908;28;20189;-80
2023/01/02 04:28:09;;;;;;;15.63;11.33;;;;;;;;;;5037864;28;20650;-79
2023/01/02 04:30:39;;;;;;;16.57;11.17;;;;;;;;;;5038962;28;20225;-81
2023/01/02 04:33:06;;;;;;;14.40;10.57;;;;;;;;;;5041556;28;20246;-79
2023/01/02 04:35:34;;;;;;;14.00;9.87;;;;;;;;;;5044378;28;20177;-79
2023/01/02 04:38:07;;;;;;;16.97;11.40;;;;;;;;;;5040229;28;20236;-79
2023/01/02 04:40:36;;;;;;;14.73;10.00;;;;;;;;;;5042004;28;20587;-79
2023/01/02 04:43:03;;;;;;;13.97;10.37;;;;;;;;;;5049737;28;20200;-80
2023/01/02 04:45:29;;;;;;;17.57;12.33;;;;;;;;;;5041309;28;20259;-78
2023/01/02 04:47:55;;;;;;;21.17;12.93;;;;;;;;;;5049733;28;20898;-78
2023/01/02 04:50:21;;;;;;;21.10;11.90;;;;;;;;;;5053918;28;20182;-80
2023/01/02 04:52:47;;;;;;;18.70;11.17;;;;;;;;;;5047049;28;20213;-81
2023/01/02 04:55:13;;;;;;;18.13;12.10;;;;;;;;;;5039924;28;20198;-81
2023/01/02 04:57:39;;;;;;;18.67;12.43;;;;;;;;;;5044171;28;20193;-81
2023/01/02 05:00:06;;;;;;;17.40;11.90;;;;;;;;;;5043721;28;20182;-81
2023/01/02 05:02:38;;;;;;;15.60;11.67;;;;;;;;;;5049741;28;21308;-80
2023/01/02 05:05:04;;;;;;;16.87;11.97;;;;;;;;;;5051692;28;20526;-80
2023/01/02 05:07:32;;;;;;;18.20;11.80;;;;;;;;;;5052578;28;20188;-81
2023/01/02 05:09:58;;;;;;;24.23;13.63;;;;;;;;;;5048168;28;20268;-80
2023/01/02 05:12:24;;;;;;;21.80;12.87;;;;;;;;;;5047081;28;20209;-79
2023/01/02 05:14:50;;;;;;;16.40;12.20;;;;;;;;;;5055607;28;20181;-81
2023/01/02 05:17:16;;;;;;;20.47;13.00;;;;;;;;;;5043174;28;20185;-80
2023/01/02 05:19:42;;;;;;;18.47;12.67;;;;;;;;;;5057119;28;20593;-79
2023/01/02 05:24:55;;;;;;;15.97;12.07;;;;;;;;;;5049428;28;20279;-80
2023/01/02 05:27:21;;;;;;;24.37;13.27;;;;;;;;;;5042275;28;20248;-80
2023/01/02 05:29:47;;;;;;;18.80;12.60;;;;;;;;;;5042858;28;20231;-78
2023/01/02 05:32:13;;;;;;;18.33;12.93;;;;;;;;;;5047061;28;20196;-79
2023/01/02 05:34:39;;;;;;;18.30;13.17;;;;;;;;;;5044378;28;20239;-79
2023/01/02 05:37:05;;;;;;;19.07;13.53;;;;;;;;;;5043858;28;21358;-80
2023/01/02 05:39:31;;;;;;;19.67;12.80;;;;;;;;;;5056545;28;20196;-80
2023/01/02 05:41:57;;;;;;;22.00;13.97;;;;;;;;;;5047444;28;20668;-79
2023/01/02 05:44:23;;;;;;;19.13;12.23;;;;;;;;;;5052857;28;20181;-79
2023/01/02 05:46:49;;;;;;;19.77;12.40;;;;;;;;;;5049214;28;20276;-79
2023/01/02 05:49:15;;;;;;;19.37;13.83;;;;;;;;;;5045946;28;20276;-81
2023/01/02 05:51:41;;;;;;;21.13;13.90;;;;;;;;;;5044778;28;20601;-80
2023/01/02 05:54:07;;;;;;;22.50;14.10;;;;;;;;;;5044394;28;20214;-81
2023/01/02 05:56:33;;;;;;;21.47;12.60;;;;;;;;;;5055204;28;20352;-79
2023/01/02 05:58:59;;;;;;;21.53;13.13;;;;;;;;;;5047991;28;20305;-79
2023/01/02 06:01:27;;;;;;;17.77;11.93;;;;;;;;;;5042858;28;20375;-81
2023/01/02 06:03:54;;;;;;;19.37;12.40;;;;;;;;;;5052705;28;20201;-80
2023/01/02 06:06:21;;;;;;;20.30;12.30;;;;;;;;;;5046697;28;20281;-78
2023/01/02 06:08:47;;;;;;;16.70;11.60;;;;;;;;;;5052612;28;20182;-81
2023/01/02 06:11:13;;;;;;;17.70;10.80;;;;;;;;;;5075997;28;20196;-80
2023/01/02 06:13:39;;;;;;;18.50;11.87;;;;;;;;;;5052414;28;20266;-78
2023/01/02 06:16:06;;;;;;;14.73;10.47;;;;;;;;;;5049899;28;20197;-80
2023/01/02 06:18:33;;;;;;;14.67;11.00;;;;;;;;;;5052575;28;20190;-80
2023/01/02 06:21:04;;;;;;;17.47;10.10;;;;;;;;;;5049377;28;20243;-79
2023/01/02 06:23:31;;;;;;;18.13;10.60;;;;;;;;;;5067709;28;20623;-79
2023/01/02 06:26:04;;;;;;;17.77;11.33;;;;;;;;;;5050176;28;20178;-79
2023/01/02 06:28:31;;;;;;;30.03;16.37;;;;;;;;;;5053499;28;20225;-77
2023/01/02 06:31:02;;;;;;;23.23;15.13;;;;;;;;;;5071453;28;20693;-78
2023/01/02 06:33:30;;;;;;;29.47;18.63;;;;;;;;;;5066663;28;20206;-77
2023/01/02 06:36:02;;;;;;;29.43;18.23;;;;;;;;;;5071002;28;20204;-79
2023/01/02 06:38:29;;;;;;;16.10;10.83;;;;;;;;;;5081879;28;20173;-79
2023/01/02 06:41:00;;;;;;;16.00;10.43;;;;;;;;;;5052203;28;20189;-78
2023/01/02 06:43:28;;;;;;;15.93;10.73;;;;;;;;;;5050788;28;20209;-80
2023/01/02 06:45:58;;;;;;;14.17;10.63;;;;;;;;;;5051717;28;20181;-80
2023/01/02 06:48:25;;;;;;;17.93;11.23;;;;;;;;;;5043014;28;20177;-79
2023/01/02 06:50:52;;;;;;;26.60;15.60;;;;;;;;;;5053125;28;20791;-79
2023/01/02 06:53:19;;;;;;;25.30;15.77;;;;;;;;;;5049961;28;20212;-79
2023/01/02 06:55:58;;;;;;;21.97;15.00;;;;;;;;;;5051225;28;20598;-80
2023/01/02 06:58:28;;;;;;;20.97;14.13;;;;;;;;;;5048897;28;20604;-79
2023/01/02 07:00:55;;;;;;;15.57;10.87;;;;;;;;;;5048601;28;20181;-78
2023/01/02 07:03:22;;;;;;;19.80;14.30;;;;;;;;;;5049935;28;20187;-78
2023/01/02 07:05:49;;;;;;;19.70;14.47;;;;;;;;;;5052617;28;20169;-79
2023/01/02 07:08:16;;;;;;;19.67;13.93;;;;;;;;;;5050148;28;20185;-79
2023/01/02 07:10:43;;;;;;;20.43;13.27;;;;;;;;;;5058218;28;20186;-79
2023/01/02 07:13:11;;;;;;;18.13;12.87;;;;;;;;;;5048644;28;20228;-79
2023/01/02 07:15:38;;;;;;;14.57;10.90;;;;;;;;;;5049324;28;20186;-79
2023/01/02 07:18:04;;;;;;;14.63;11.27;;;;;;;;;;5052037;28;20201;-79
2023/01/02 07:20:31;;;;;;;18.03;11.30;;;;;;;;;;5049440;28;20178;-79
2023/01/02 07:22:58;;;;;;;18.67;11.80;;;;;;;;;;5048471;28;20188;-79
2023/01/02 07:25:25;;;;;;;17.77;12.50;;;;;;;;;;5049036;28;20661;-79
2023/01/02 07:27:53;;;;;;;17.50;10.57;;;;;;;;;;5048727;28;20178;-78
2023/01/02 07:30:19;;;;;;;16.03;11.17;;;;;;;;;;5049335;28;20744;-79
2023/01/02 07:32:46;;;;;;;13.70;9.33;;;;;;;;;;5050683;28;20208;-79
2023/01/02 07:35:13;;;;;;;16.07;9.53;;;;;;;;;;5043276;28;20178;-78
2023/01/02 07:37:41;;;;;;;12.20;9.07;;;;;;;;;;5049259;28;20584;-79
2023/01/02 07:40:08;;;;;;;13.87;9.63;;;;;;;;;;5047507;28;20196;-79
2023/01/02 07:42:35;;;;;;;12.53;8.53;;;;;;;;;;5048480;28;20182;-79
2023/01/02 07:45:02;;;;;;;14.53;8.43;;;;;;;;;;5052330;28;20178;-78
2023/01/02 07:47:29;;;;;;;12.07;7.97;;;;;;;;;;5050992;28;20174;-79
2023/01/02 07:49:56;;;;;;;14.57;8.77;;;;;;;;;;5048470;28;20173;-79
2023/01/02 07:52:23;;;;;;;15.53;9.63;;;;;;;;;;5047839;28;20610;-79
2023/01/02 07:54:49;;;;;;;14.37;9.17;;;;;;;;;;5049555;28;20264;-79
2023/01/02 07:57:17;;;;;;;13.30;9.37;;;;;;;;;;5048368;28;20170;-78
2023/01/02 07:59:45;;;;;;;12.00;9.13;;;;;;;;;;5050499;28;20173;-79
2023/01/02 08:02:12;;;;;;;13.33;9.30;;;;;;;;;;5050371;28;20181;-79
2023/01/02 08:04:39;;;;;;;15.33;9.90;;;;;;;;;;5049482;28;20203;-78
2023/01/02 08:07:06;;;;;;;13.90;9.13;;;;;;;;;;5050234;28;20170;-79
2023/01/02 08:09:33;;;;;;;14.80;9.40;;;;;;;;;;5046957;28;20178;-79
2023/01/02 08:12:00;;;;;;;12.30;8.87;;;;;;;;;;5057831;28;20220;-79
2023/01/02 08:14:26;;;;;;;16.13;9.60;;;;;;;;;;5047835;28;20674;-79
2023/01/02 08:16:53;;;;;;;14.37;9.43;;;;;;;;;;5049775;28;20181;-78
2023/01/02 08:19:20;;;;;;;14.27;9.10;;;;;;;;;;5049401;28;20207;-78
2023/01/02 08:21:47;;;;;;;13.27;9.03;;;;;;;;;;5048530;28;20201;-78
2023/01/02 08:24:14;;;;;;;13.90;9.80;;;;;;;;;;5048016;28;20523;-79
2023/01/02 08:26:41;;;;;;;13.80;8.77;;;;;;;;;;5057129;28;20170;-79
2023/01/02 08:29:08;;;;;;;14.73;9.53;;;;;;;;;;5046214;28;20170;-79
2023/01/02 08:31:35;;;;;;;13.23;9.13;;;;;;;;;;5049558;28;20242;-79
2023/01/02 08:34:02;;;;;;;15.13;9.63;;;;;;;;;;5051732;28;20212;-79
2023/01/02 08:36:29;;;;;;;14.73;9.70;;;;;;;;;;5051039;28;20191;-78
2023/01/02 08:38:56;;;;;;;18.47;10.13;;;;;;;;;;5070328;28;20504;-79
2023/01/02 08:41:36;;;;;;;12.27;9.53;;;;;;;;;;5053133;28;20185;-79
2023/01/02 08:44:03;;;;;;;17.70;10.23;;;;;;;;;;5053012;28;20319;-79
2023/01/02 08:46:34;;;;;;;13.97;10.17;;;;;;;;;;5051716;28;20581;-79
2023/01/02 08:49:01;;;;;;;11.83;9.30;;;;;;;;;;5051472;28;20178;-78
2023/01/02 08:51:28;;;;;;;14.53;10.27;;;;;;;;;;5051305;28;20523;-78
2023/01/02 08:53:55;;;;;;;15.67;10.53;;;;;;;;;;5053517;28;20194;-79
2023/01/02 08:56:23;;;;;;;18.23;10.30;;;;;;;;;;5054292;28;20192;-79
2023/01/02 08:58:54;;;;;;;16.50;10.67;;;;;;;;;;5053699;28;20558;-79
2023/01/02 09:01:21;;;;;;;13.03;9.90;;;;;;;;;;5062473;28;20563;-78
2023/01/02 09:03:47;;;;;;;13.57;9.90;;;;;;;;;;5051285;28;20190;-78
2023/01/02 09:06:14;;;;;;;14.20;10.20;;;;;;;;;;5052151;28;20649;-78
2023/01/02 09:08:41;;;;;;;17.17;10.83;;;;;;;;;;5050710;28;20166;-78
2023/01/02 09:11:15;;;;;;;15.83;10.37;;;;;;;;;;5056998;28;20680;-79
2023/01/02 09:13:43;;;;;;;14.67;10.27;;;;;;;;;;5051445;28;20292;-79
2023/01/02 09:16:09;;;;;;;13.90;10.33;;;;;;;;;;5048812;28;20642;-79
2023/01/02 09:18:35;;;;;;;13.10;10.40;;;;;;;;;;5050632;28;20179;-78
2023/01/02 09:21:02;;;;;;;13.33;10.23;;;;;;;;;;5053103;28;20174;-78
2023/01/02 09:23:28;;;;;;;15.97;10.30;;;;;;;;;;5052917;28;20186;-78
2023/01/02 09:25:57;;;;;;;14.63;10.37;;;;;;;;;;5051123;28;20185;-79
2023/01/02 09:28:23;;;;;;;18.43;10.93;;;;;;;;;;5049368;28;20193;-78
2023/01/02 09:30:49;;;;;;;17.53;10.67;;;;;;;;;;5049356;28;20701;-78
2023/01/02 09:33:15;;;;;;;15.53;10.80;;;;;;;;;;5053971;28;20208;-78
2023/01/02 09:35:41;;;;;;;14.23;10.23;;;;;;;;;;5052879;28;20208;-78
2023/01/02 09:38:07;;;;;;;14.90;10.43;;;;;;;;;;5057195;28;20217;-78
2023/01/02 09:40:34;;;;;;;16.03;10.27;;;;;;;;;;5053655;28;20194;-78
2023/01/02 09:43:00;;;;;;;15.77;10.20;;;;;;;;;;5058870;28;20205;-78
2023/01/02 09:45:27;;;;;;;15.10;10.77;;;;;;;;;;5049434;28;20555;-78
2023/01/02 09:47:53;;;;;;;17.33;11.50;;;;;;;;;;5052850;28;20178;-77
2023/01/02 09:50:24;;;;;;;17.87;10.87;;;;;;;;;;5050463;28;20189;-78
2023/01/02 09:52:59;;;;;;;18.10;11.53;;;;;;;;;;5050972;28;20282;-77
2023/01/02 09:55:49;;;;;;;15.00;11.07;;;;;;;;;;5054112;28;20193;-78
2023/01/02 09:58:27;;;;;;;17.33;11.43;;;;;;;;;;5080460;28;20200;-78
2023/01/02 10:00:53;;;;;;;18.30;11.77;;;;;;;;;;5048171;28;20257;-78
2023/01/02 10:03:38;;;;;;;15.67;10.90;;;;;;;;;;5049443;28;20181;-78
2023/01/02 10:06:06;;;;;;;16.93;11.23;;;;;;;;;;5033773;28;20171;-78
2023/01/02 10:08:35;;;;;;;14.77;10.77;;;;;;;;;;5048980;28;20174;-78
2023/01/02 10:11:24;;;;;;;16.17;11.00;;;;;;;;;;5048727;28;20272;-79
2023/01/02 10:13:57;;;;;;;14.00;10.00;;;;;;;;;;5050315;28;20690;-78
2023/01/02 10:16:30;;;;;;;15.43;11.27;;;;;;;;;;5050016;28;20205;-78
2023/01/02 10:18:58;;;;;;;14.60;11.10;;;;;;;;;;5045784;28;20249;-78
2023/01/02 10:21:29;;;;;;;16.67;10.63;;;;;;;;;;5050466;28;20174;-78
2023/01/02 10:24:01;;;;;;;14.97;10.43;;;;;;;;;;5052147;28;20216;-79
2023/01/02 10:26:37;;;;;;;16.30;9.93;;;;;;;;;;5048306;28;20209;-78
2023/01/02 10:29:17;;;;;;;16.20;11.07;;;;;;;;;;5051054;28;20239;-78
2023/01/02 10:31:44;;;;;;;17.83;9.83;;;;;;;;;;5047704;28;20251;-79
2023/01/02 10:34:14;;;;;;;17.73;10.93;;;;;;;;;;5051369;28;20202;-78
2023/01/02 10:36:41;;;;;;;14.97;10.37;;;;;;;;;;5036456;28;20187;-79
2023/01/02 10:39:09;;;;;;;14.73;10.33;;;;;;;;;;5053236;28;20173;-77
2023/01/02 10:41:35;;;;;;;15.17;9.67;;;;;;;;;;5067713;28;20177;-78
2023/01/02 10:44:03;;;;;;;15.57;10.73;;;;;;;;;;5050014;28;20186;-78
2023/01/02 10:46:34;;;;;;;15.60;10.77;;;;;;;;;;5060631;28;20174;-77
2023/01/02 10:49:00;;;;;;;15.97;11.53;;;;;;;;;;5048172;28;20217;-78
2023/01/02 10:51:26;;;;;;;18.30;10.87;;;;;;;;;;5051310;28;20638;-79
2023/01/02 10:54:06;;;;;;;14.50;10.90;;;;;;;;;;5051029;28;20273;-79
2023/01/02 10:56:33;;;;;;;18.03;11.60;;;;;;;;;;5048666;28;20197;-79
2023/01/02 10:59:00;;;;;;;15.33;10.53;;;;;;;;;;5048768;28;20188;-77
2023/01/02 11:01:26;;;;;;;16.07;10.70;;;;;;;;;;5061845;28;20216;-78
2023/01/02 11:03:56;;;;;;;19.73;12.30;;;;;;;;;;5047950;28;20190;-78
2023/01/02 11:06:30;;;;;;;17.57;10.90;;;;;;;;;;5052365;28;21247;-78
2023/01/02 11:08:56;;;;;;;20.40;11.00;;;;;;;;;;5049558;28;20651;-78
2023/01/02 11:11:23;;;;;;;16.67;11.97;;;;;;;;;;5047559;28;20219;-79
2023/01/02 11:13:50;;;;;;;16.63;11.53;;;;;;;;;;5059758;28;20233;-78
2023/01/02 11:16:17;;;;;;;17.43;11.30;;;;;;;;;;5047026;28;20186;-78
2023/01/02 11:18:51;;;;;;;14.33;10.87;;;;;;;;;;5047051;28;20266;-78
2023/01/02 11:21:24;;;;;;;17.17;10.63;;;;;;;;;;5053297;28;20646;-78
2023/01/02 11:23:50;;;;;;;15.20;11.33;;;;;;;;;;5050754;28;20173;-78
2023/01/02 11:26:21;;;;;;;17.53;11.77;;;;;;;;;;5046572;28;20186;-79
2023/01/02 11:28:49;;;;;;;17.07;11.93;;;;;;;;;;5046862;28;20316;-79
2023/01/02 11:31:16;;;;;;;14.13;9.97;;;;;;;;;;5042281;28;20264;-79
2023/01/02 11:33:44;;;;;;;15.80;10.87;;;;;;;;;;5049127;28;20288;-78
2023/01/02 11:36:10;;;;;;;19.43;11.33;;;;;;;;;;5066271;28;20173;-78
2023/01/02 11:38:59;;;;;;;13.67;10.13;;;;;;;;;;5049586;28;20186;-78
2023/01/02 11:44:28;;;;;;;14.93;10.13;;;;;;;;;;5046965;28;20196;-78
2023/01/02 11:46:55;;;;;;;16.13;10.77;;;;;;;;;;5049363;28;20200;-79
2023/01/02 11:49:23;;;;;;;16.70;10.90;;;;;;;;;;5059361;28;20192;-79
2023/01/02 11:52:02;;;;;;;17.00;10.47;;;;;;;;;;5048379;28;20193;-79
2023/01/02 11:54:49;;;;;;;14.57;10.43;;;;;;;;;;5050654;28;20233;-78
2023/01/02 11:57:38;;;;;;;15.50;9.87;;;;;;;;;;5046265;28;20173;-79
2023/01/02 12:00:08;;;;;;;14.13;9.93;;;;;;;;;;5047003;28;20170;-78
2023/01/02 12:02:38;;;;;;;15.47;9.93;;;;;;;;;;5050324;28;20193;-78
2023/01/02 12:05:10;;;;;;;16.03;10.23;;;;;;;;;;5050402;28;20231;-82
2023/01/02 12:07:36;;;;;;;14.13;9.73;;;;;;;;;;5053864;28;20685;-78
2023/01/02 12:10:21;;;;;;;14.97;10.13;;;;;;;;;;5046277;28;20181;-78
2023/01/02 12:13:05;;;;;;;14.37;9.83;;;;;;;;;;5047489;28;20201;-78
2023/01/02 12:15:41;;;;;;;12.60;9.30;;;;;;;;;;5047217;28;20178;-79
2023/01/02 12:18:07;;;;;;;14.30;9.93;;;;;;;;;;5049629;28;20268;-78
2023/01/02 12:20:51;;;;;;;14.30;9.97;;;;;;;;;;5046433;28;20273;-79
2023/01/02 12:23:18;;;;;;;13.97;9.77;;;;;;;;;;5046143;28;20194;-78
2023/01/02 12:25:59;;;;;;;14.63;9.43;;;;;;;;;;5046524;28;20189;-78
2023/01/02 12:28:34;;;;;;;15.00;9.33;;;;;;;;;;5041290;28;20186;-78
2023/01/02 12:31:12;;;;;;;16.90;9.60;;;;;;;;;;5033110;28;20577;-78
2023/01/02 12:33:43;;;;;;;12.87;9.00;;;;;;;;;;5047123;28;20214;-78
2023/01/02 12:36:12;;;;;;;15.30;7.83;;;;;;;;;;5049918;28;20177;-78
2023/01/02 12:38:38;;;;;;;13.07;8.50;;;;;;;;;;5049301;28;20190;-78
2023/01/02 12:41:09;;;;;;;14.43;8.23;;;;;;;;;;5049787;28;20193;-79
2023/01/02 12:43:35;;;;;;;16.60;8.70;;;;;;;;;;5046420;28;20300;-78
2023/01/02 12:46:16;;;;;;;13.80;8.47;;;;;;;;;;5046435;28;20631;-78
2023/01/02 12:48:55;;;;;;;12.10;8.00;;;;;;;;;;5048878;28;20194;-78
2023/01/02 12:51:42;;;;;;;10.63;7.53;;;;;;;;;;5046631;28;20188;-78
2023/01/02 12:54:13;;;;;;;10.80;7.70;;;;;;;;;;5050292;28;20296;-79
2023/01/02 12:56:46;;;;;;;11.90;7.67;;;;;;;;;;5045933;28;20563;-78
2023/01/02 12:59:18;;;;;;;11.63;8.50;;;;;;;;;;5046181;28;20178;-78
2023/01/02 13:01:47;;;;;;;15.33;8.23;;;;;;;;;;5047092;28;20182;-78
2023/01/02 13:04:19;;;;;;;10.60;7.87;;;;;;;;;;5048204;28;20272;-80
2023/01/02 13:06:45;;;;;;;10.57;7.67;;;;;;;;;;5047361;28;20186;-78
2023/01/02 13:09:20;;;;;;;12.97;8.27;;;;;;;;;;5050585;28;20630;-78
2023/01/02 13:11:49;;;;;;;11.77;8.23;;;;;;;;;;5062829;28;20181;-78
2023/01/02 13:14:21;;;;;;;11.50;7.73;;;;;;;;;;5046805;28;20210;-78
2023/01/02 13:16:53;;;;;;;12.07;8.00;;;;;;;;;;5045652;28;20186;-78
2023/01/02 13:19:36;;;;;;;10.87;7.77;;;;;;;;;;5048844;28;20181;-78
2023/01/02 13:22:13;;;;;;;12.87;8.50;;;;;;;;;;5036385;28;20186;-78
2023/01/02 13:24:39;;;;;;;13.90;7.87;;;;;;;;;;5050251;28;20193;-79
2023/01/02 13:27:05;;;;;;;11.37;7.30;;;;;;;;;;5053453;28;20178;-78
2023/01/02 13:29:45;;;;;;;11.30;8.23;;;;;;;;;;5048183;28;20552;-79
2023/01/02 13:32:12;;;;;;;12.50;7.93;;;;;;;;;;5046206;28;20207;-79
2023/01/02 13:34:46;;;;;;;13.33;8.33;;;;;;;;;;5047283;28;20210;-78
2023/01/02 13:37:15;;;;;;;12.57;8.67;;;;;;;;;;5050411;28;20205;-79
2023/01/02 13:39:41;;;;;;;11.77;8.83;;;;;;;;;;5050685;28;20264;-79
2023/01/02 13:44:55;;;;;;;13.70;9.00;;;;;;;;;;5053381;28;20602;-78
2023/01/02 13:47:23;;;;;;;11.70;9.27;;;;;;;;;;5048926;28;20182;-78
2023/01/02 13:49:56;;;;;;;12.90;8.73;;;;;;;;;;5050151;28;20189;-79
2023/01/02 13:52:23;;;;;;;12.30;8.53;;;;;;;;;;5052112;28;20199;-78
2023/01/02 13:55:07;;;;;;;13.67;8.63;;;;;;;;;;5033227;28;20602;-79
2023/01/02 13:57:33;;;;;;;13.47;8.53;;;;;;;;;;5061456;28;20293;-77
2023/01/02 14:00:20;;;;;;;13.80;8.93;;;;;;;;;;5062481;28;20173;-77
2023/01/02 14:03:06;;;;;;;10.57;7.93;;;;;;;;;;5004457;28;20933;-78
2023/01/02 14:05:50;;;;;;;13.73;8.53;;;;;;;;;;5044764;28;20198;-78
2023/01/02 14:08:23;;;;;;;12.33;8.73;;;;;;;;;;5028440;28;20198;-78
2023/01/02 14:10:51;;;;;;;12.23;8.60;;;;;;;;;;5027415;28;20198;-78
2023/01/02 14:13:20;;;;;;;15.10;8.37;;;;;;;;;;5027441;28;20222;-78
2023/01/02 14:16:10;;;;;;;12.47;8.10;;;;;;;;;;5010960;28;20195;-78
2023/01/02 14:18:36;;;;;;;10.50;8.20;;;;;;;;;;5041812;28;20170;-78
2023/01/02 14:21:02;;;;;;;14.07;9.00;;;;;;;;;;5028034;28;20197;-78
2023/01/02 14:23:31;;;;;;;13.13;8.13;;;;;;;;;;5027426;28;20194;-79
2023/01/02 14:25:57;;;;;;;13.83;8.53;;;;;;;;;;5026789;28;20189;-78
2023/01/02 14:28:25;;;;;;;9.50;7.33;;;;;;;;;;5027704;28;20190;-79
2023/01/02 14:30:51;;;;;;;14.10;8.40;;;;;;;;;;5024360;28;20229;-79
2023/01/02 14:33:38;;;;;;;13.07;8.60;;;;;;;;;;5010646;28;20373;-80
2023/01/02 14:36:08;;;;;;;12.77;8.07;;;;;;;;;;5021615;28;20309;-79
2023/01/02 14:38:52;;;;;;;12.90;8.73;;;;;;;;;;5035241;28;20190;-79
2023/01/02 14:44:26;;;;;;;13.87;8.60;;;;;;;;;;5039922;28;20280;-79
2023/01/02 14:46:52;;;;;;;15.60;9.87;;;;;;;;;;5042407;28;20193;-78
2023/01/02 14:49:21;;;;;;;13.20;8.83;;;;;;;;;;5048406;28;20650;-79